sensor_id;sensor_type;location;lat;lon;timestamp;temperature;humidity
68051;DHT22;54839;51.364;7.246;2023-03-01T00:01:07;-2.10;99.90
68051;DHT22;54839;51.364;7.246;2023-03-01T00:03:33;-2.20;99.90
68051;DHT22;54839;51.364;7.246;2023-03-01T00:05:59;-2.20;99.90
68051;DHT22;54839;51.364;7.246;2023-03-01T00:08:25;-2.20;99.90
68051;DHT22;54839;51.364;7.246;2023-03-01T00:11:24;-2.40;99.90
68051;DHT22;54839;51.364;7.246;2023-03-01T00:13:52;-2.50;99.90
68051;DHT22;54839;51.364;7.246;2023-03-01T00:16:21;-2.50;99.90
68051;DHT22;54839;51.364;7.246;2023-03-01T00:18:47;-2.50;99.90
68051;DHT22;54839;51.364;7.246;2023-03-01T00:21:13;-2.50;99.90
68051;DHT22;54839;51.364;7.246;2023-03-01T00:23:39;-2.50;99.90
68051;DHT22;54839;51.364;7.246;2023-03-01T00:26:13;-2.50;99.90
68051;DHT22;54839;51.364;7.246;2023-03-01T00:28:39;-2.60;99.90
68051;DHT22;54839;51.364;7.246;2023-03-01T00:31:06;-2.60;99.90
68051;DHT22;54839;51.364;7.246;2023-03-01T00:33:32;-2.40;99.90
68051;DHT22;54839;51.364;7.246;2023-03-01T00:36:01;-2.50;99.90
68051;DHT22;54839;51.364;7.246;2023-03-01T00:38:26;-2.50;99.90
68051;DHT22;54839;51.364;7.246;2023-03-01T00:40:52;-2.60;99.90
68051;DHT22;54839;51.364;7.246;2023-03-01T00:43:18;-2.70;99.90
68051;DHT22;54839;51.364;7.246;2023-03-01T00:45:45;-2.70;99.90
68051;DHT22;54839;51.364;7.246;2023-03-01T00:48:10;-2.70;99.90
68051;DHT22;54839;51.364;7.246;2023-03-01T00:50:36;-2.70;99.90
68051;DHT22;54839;51.364;7.246;2023-03-01T00:53:02;-2.70;99.90
68051;DHT22;54839;51.364;7.246;2023-03-01T00:55:27;-2.80;99.90
68051;DHT22;54839;51.364;7.246;2023-03-01T00:57:53;-2.90;99.90
68051;DHT22;54839;51.364;7.246;2023-03-01T01:00:19;-3.00;99.90
68051;DHT22;54839;51.364;7.246;2023-03-01T01:02:45;-3.00;99.90
68051;DHT22;54839;51.364;7.246;2023-03-01T01:05:10;-3.00;99.90
68051;DHT22;54839;51.364;7.246;2023-03-01T01:07:36;-2.90;99.90
68051;DHT22;54839;51.364;7.246;2023-03-01T01:10:02;-2.90;99.90
68051;DHT22;54839;51.364;7.246;2023-03-01T01:12:28;-2.90;99.90
68051;DHT22;54839;51.364;7.246;2023-03-01T01:14:54;-2.80;99.90
68051;DHT22;54839;51.364;7.246;2023-03-01T01:17:19;-2.80;99.90
68051;DHT22;54839;51.364;7.246;2023-03-01T01:19:45;-2.90;99.90
68051;DHT22;54839;51.364;7.246;2023-03-01T01:22:11;-2.90;99.90
68051;DHT22;54839;51.364;7.246;2023-03-01T01:24:36;-3.10;99.90
68051;DHT22;54839;51.364;7.246;2023-03-01T01:27:02;-3.20;99.90
68051;DHT22;54839;51.364;7.246;2023-03-01T01:29:27;-3.30;99.90
68051;DHT22;54839;51.364;7.246;2023-03-01T01:31:53;-3.20;99.90
68051;DHT22;54839;51.364;7.246;2023-03-01T01:34:20;-3.30;99.90
68051;DHT22;54839;51.364;7.246;2023-03-01T01:36:51;-3.30;99.90
68051;DHT22;54839;51.364;7.246;2023-03-01T01:39:18;-3.20;99.90
68051;DHT22;54839;51.364;7.246;2023-03-01T01:41:44;-3.30;99.90
68051;DHT22;54839;51.364;7.246;2023-03-01T01:49:36;-3.40;99.90
68051;DHT22;54839;51.364;7.246;2023-03-01T01:52:13;-3.40;99.90
68051;DHT22;54839;51.364;7.246;2023-03-01T01:55:05;-3.50;99.90
68051;DHT22;54839;51.364;7.246;2023-03-01T01:57:35;-3.50;99.90
68051;DHT22;54839;51.364;7.246;2023-03-01T02:00:07;-3.60;99.90
68051;DHT22;54839;51.364;7.246;2023-03-01T02:02:33;-3.60;99.90
68051;DHT22;54839;51.364;7.246;2023-03-01T02:05:09;-3.60;99.90
68051;DHT22;54839;51.364;7.246;2023-03-01T02:07:37;-3.60;99.90
68051;DHT22;54839;51.364;7.246;2023-03-01T02:10:04;-3.60;99.90
68051;DHT22;54839;51.364;7.246;2023-03-01T02:12:30;-3.70;99.90
68051;DHT22;54839;51.364;7.246;2023-03-01T02:14:56;-3.70;99.90
68051;DHT22;54839;51.364;7.246;2023-03-01T02:17:22;-3.70;99.90
68051;DHT22;54839;51.364;7.246;2023-03-01T02:22:33;-3.80;99.90
68051;DHT22;54839;51.364;7.246;2023-03-01T02:30:29;-3.50;99.90
68051;DHT22;54839;51.364;7.246;2023-03-01T02:32:56;-3.60;99.90
68051;DHT22;54839;51.364;7.246;2023-03-01T02:35:38;-3.60;99.90
68051;DHT22;54839;51.364;7.246;2023-03-01T02:38:07;-3.60;99.90
68051;DHT22;54839;51.364;7.246;2023-03-01T02:40:34;-3.80;99.90
68051;DHT22;54839;51.364;7.246;2023-03-01T02:43:02;-3.90;99.90
68051;DHT22;54839;51.364;7.246;2023-03-01T02:45:29;-4.00;99.90
68051;DHT22;54839;51.364;7.246;2023-03-01T02:47:56;-4.10;99.90
68051;DHT22;54839;51.364;7.246;2023-03-01T02:53:11;-4.10;99.90
68051;DHT22;54839;51.364;7.246;2023-03-01T02:55:38;-4.10;99.90
68051;DHT22;54839;51.364;7.246;2023-03-01T02:58:04;-4.00;99.90
68051;DHT22;54839;51.364;7.246;2023-03-01T03:00:34;-4.10;99.90
68051;DHT22;54839;51.364;7.246;2023-03-01T03:03:05;-4.10;99.90
68051;DHT22;54839;51.364;7.246;2023-03-01T03:05:32;-4.00;99.90
68051;DHT22;54839;51.364;7.246;2023-03-01T03:07:59;-4.10;99.90
68051;DHT22;54839;51.364;7.246;2023-03-01T03:10:28;-4.20;99.90
68051;DHT22;54839;51.364;7.246;2023-03-01T03:12:56;-4.20;99.90
68051;DHT22;54839;51.364;7.246;2023-03-01T03:15:23;-4.10;99.90
68051;DHT22;54839;51.364;7.246;2023-03-01T03:17:49;-4.20;99.90
68051;DHT22;54839;51.364;7.246;2023-03-01T03:20:18;-4.30;99.90
68051;DHT22;54839;51.364;7.246;2023-03-01T03:22:48;-4.40;99.90
68051;DHT22;54839;51.364;7.246;2023-03-01T03:25:15;-4.30;99.90
68051;DHT22;54839;51.364;7.246;2023-03-01T03:27:42;-4.20;99.90
68051;DHT22;54839;51.364;7.246;2023-03-01T03:30:11;-4.20;99.90
68051;DHT22;54839;51.364;7.246;2023-03-01T03:32:39;-4.20;99.90
68051;DHT22;54839;51.364;7.246;2023-03-01T03:35:06;-4.30;99.90
68051;DHT22;54839;51.364;7.246;2023-03-01T03:37:38;-4.30;99.90
68051;DHT22;54839;51.364;7.246;2023-03-01T03:40:22;-4.40;99.90
68051;DHT22;54839;51.364;7.246;2023-03-01T03:42:48;-4.40;99.90
68051;DHT22;54839;51.364;7.246;2023-03-01T03:45:15;-4.50;99.90
68051;DHT22;54839;51.364;7.246;2023-03-01T03:47:41;-4.60;99.90
68051;DHT22;54839;51.364;7.246;2023-03-01T03:50:09;-4.60;99.90
68051;DHT22;54839;51.364;7.246;2023-03-01T03:52:34;-4.50;99.90
68051;DHT22;54839;51.364;7.246;2023-03-01T03:55:00;-4.60;99.90
68051;DHT22;54839;51.364;7.246;2023-03-01T03:57:25;-4.50;99.90
68051;DHT22;54839;51.364;7.246;2023-03-01T03:59:51;-4.50;99.90
68051;DHT22;54839;51.364;7.246;2023-03-01T04:02:16;-4.60;99.90
68051;DHT22;54839;51.364;7.246;2023-03-01T04:04:48;-4.40;99.90
68051;DHT22;54839;51.364;7.246;2023-03-01T04:07:15;-4.40;99.90
68051;DHT22;54839;51.364;7.246;2023-03-01T04:09:42;-4.30;99.90
68051;DHT22;54839;51.364;7.246;2023-03-01T04:12:09;-4.40;99.90
68051;DHT22;54839;51.364;7.246;2023-03-01T04:14:36;-4.40;99.90
68051;DHT22;54839;51.364;7.246;2023-03-01T04:17:02;-4.40;99.90
68051;DHT22;54839;51.364;7.246;2023-03-01T04:19:33;-4.50;99.90
68051;DHT22;54839;51.364;7.246;2023-03-01T04:22:02;-4.50;99.90
68051;DHT22;54839;51.364;7.246;2023-03-01T04:24:33;-4.60;99.90
68051;DHT22;54839;51.364;7.246;2023-03-01T04:26:58;-4.60;99.90
68051;DHT22;54839;51.364;7.246;2023-03-01T04:29:24;-4.70;99.90
68051;DHT22;54839;51.364;7.246;2023-03-01T04:31:49;-4.80;99.90
68051;DHT22;54839;51.364;7.246;2023-03-01T04:34:15;-4.80;99.90
68051;DHT22;54839;51.364;7.246;2023-03-01T04:36:41;-4.80;99.90
68051;DHT22;54839;51.364;7.246;2023-03-01T04:39:06;-4.80;99.90
68051;DHT22;54839;51.364;7.246;2023-03-01T04:41:38;-4.60;99.90
68051;DHT22;54839;51.364;7.246;2023-03-01T04:44:08;-4.70;99.90
68051;DHT22;54839;51.364;7.246;2023-03-01T04:46:35;-4.70;99.90
68051;DHT22;54839;51.364;7.246;2023-03-01T04:49:01;-4.80;99.90
68051;DHT22;54839;51.364;7.246;2023-03-01T04:51:26;-4.90;99.90
68051;DHT22;54839;51.364;7.246;2023-03-01T04:53:52;-4.80;99.90
68051;DHT22;54839;51.364;7.246;2023-03-01T04:56:17;-5.00;99.90
68051;DHT22;54839;51.364;7.246;2023-03-01T04:58:44;-5.00;99.90
68051;DHT22;54839;51.364;7.246;2023-03-01T05:01:19;-4.90;99.90
68051;DHT22;54839;51.364;7.246;2023-03-01T05:03:47;-4.80;99.90
68051;DHT22;54839;51.364;7.246;2023-03-01T05:06:13;-4.80;99.90
68051;DHT22;54839;51.364;7.246;2023-03-01T05:08:39;-4.70;99.90
68051;DHT22;54839;51.364;7.246;2023-03-01T05:11:05;-4.80;99.90
68051;DHT22;54839;51.364;7.246;2023-03-01T05:13:36;-4.90;99.90
68051;DHT22;54839;51.364;7.246;2023-03-01T05:16:02;-5.00;99.90
68051;DHT22;54839;51.364;7.246;2023-03-01T05:18:30;-5.00;99.90
68051;DHT22;54839;51.364;7.246;2023-03-01T05:21:02;-5.00;99.90
68051;DHT22;54839;51.364;7.246;2023-03-01T05:23:30;-5.00;99.90
68051;DHT22;54839;51.364;7.246;2023-03-01T05:25:58;-5.00;99.90
68051;DHT22;54839;51.364;7.246;2023-03-01T05:28:25;-4.80;99.90
68051;DHT22;54839;51.364;7.246;2023-03-01T05:30:51;-4.80;99.90
68051;DHT22;54839;51.364;7.246;2023-03-01T05:33:17;-4.90;99.90
68051;DHT22;54839;51.364;7.246;2023-03-01T05:35:44;-4.80;99.90
68051;DHT22;54839;51.364;7.246;2023-03-01T05:38:11;-4.80;99.90
68051;DHT22;54839;51.364;7.246;2023-03-01T05:40:39;-4.90;99.90
68051;DHT22;54839;51.364;7.246;2023-03-01T05:43:04;-4.90;99.90
68051;DHT22;54839;51.364;7.246;2023-03-01T05:45:31;-5.00;99.90
68051;DHT22;54839;51.364;7.246;2023-03-01T05:47:58;-5.00;99.90
68051;DHT22;54839;51.364;7.246;2023-03-01T05:50:26;-5.10;99.90
68051;DHT22;54839;51.364;7.246;2023-03-01T05:52:57;-5.10;99.90
68051;DHT22;54839;51.364;7.246;2023-03-01T05:55:23;-5.00;99.90
68051;DHT22;54839;51.364;7.246;2023-03-01T05:57:49;-5.10;99.90
68051;DHT22;54839;51.364;7.246;2023-03-01T06:00:17;-5.00;99.90
68051;DHT22;54839;51.364;7.246;2023-03-01T06:02:44;-5.10;99.90
68051;DHT22;54839;51.364;7.246;2023-03-01T06:05:11;-5.00;99.90
68051;DHT22;54839;51.364;7.246;2023-03-01T06:07:37;-5.00;99.90
68051;DHT22;54839;51.364;7.246;2023-03-01T06:10:04;-4.90;99.90
68051;DHT22;54839;51.364;7.246;2023-03-01T06:12:37;-4.90;99.90
68051;DHT22;54839;51.364;7.246;2023-03-01T06:15:03;-4.90;99.90
68051;DHT22;54839;51.364;7.246;2023-03-01T06:17:31;-4.80;99.90
68051;DHT22;54839;51.364;7.246;2023-03-01T06:19:57;-4.90;99.90
68051;DHT22;54839;51.364;7.246;2023-03-01T06:22:23;-4.80;99.90
68051;DHT22;54839;51.364;7.246;2023-03-01T06:24:49;-4.80;99.90
68051;DHT22;54839;51.364;7.246;2023-03-01T06:27:15;-4.80;99.90
68051;DHT22;54839;51.364;7.246;2023-03-01T06:29:40;-4.80;99.90
68051;DHT22;54839;51.364;7.246;2023-03-01T06:32:06;-4.80;99.90
68051;DHT22;54839;51.364;7.246;2023-03-01T06:34:33;-4.80;99.90
68051;DHT22;54839;51.364;7.246;2023-03-01T06:36:58;-4.80;99.90
68051;DHT22;54839;51.364;7.246;2023-03-01T06:39:24;-4.70;99.90
68051;DHT22;54839;51.364;7.246;2023-03-01T06:41:49;-4.60;99.90
68051;DHT22;54839;51.364;7.246;2023-03-01T06:44:15;-4.60;99.90
68051;DHT22;54839;51.364;7.246;2023-03-01T06:46:41;-4.40;99.90
68051;DHT22;54839;51.364;7.246;2023-03-01T06:49:06;-4.20;99.90
68051;DHT22;54839;51.364;7.246;2023-03-01T06:51:35;-4.10;99.90
68051;DHT22;54839;51.364;7.246;2023-03-01T06:54:02;-3.90;99.90
68051;DHT22;54839;51.364;7.246;2023-03-01T06:56:28;-3.80;99.90
68051;DHT22;54839;51.364;7.246;2023-03-01T06:58:53;-3.90;99.90
68051;DHT22;54839;51.364;7.246;2023-03-01T07:01:19;-3.80;99.90
68051;DHT22;54839;51.364;7.246;2023-03-01T07:03:44;-3.70;99.90
68051;DHT22;54839;51.364;7.246;2023-03-01T07:06:10;-3.70;99.90
68051;DHT22;54839;51.364;7.246;2023-03-01T07:08:36;-3.60;99.90
68051;DHT22;54839;51.364;7.246;2023-03-01T07:11:01;-3.60;99.90
68051;DHT22;54839;51.364;7.246;2023-03-01T07:13:28;-3.80;99.90
68051;DHT22;54839;51.364;7.246;2023-03-01T07:15:54;-3.70;99.90
68051;DHT22;54839;51.364;7.246;2023-03-01T07:18:19;-3.40;99.90
68051;DHT22;54839;51.364;7.246;2023-03-01T07:20:45;-3.40;99.90
68051;DHT22;54839;51.364;7.246;2023-03-01T07:23:10;-3.30;99.90
68051;DHT22;54839;51.364;7.246;2023-03-01T07:25:36;-3.20;99.90
68051;DHT22;54839;51.364;7.246;2023-03-01T07:28:02;-3.10;99.90
68051;DHT22;54839;51.364;7.246;2023-03-01T07:30:27;-2.90;99.90
68051;DHT22;54839;51.364;7.246;2023-03-01T07:32:54;-2.80;99.90
68051;DHT22;54839;51.364;7.246;2023-03-01T07:35:20;-2.60;99.90
68051;DHT22;54839;51.364;7.246;2023-03-01T07:37:46;-2.50;99.90
68051;DHT22;54839;51.364;7.246;2023-03-01T07:40:12;-2.50;99.90
68051;DHT22;54839;51.364;7.246;2023-03-01T07:42:38;-2.50;99.90
68051;DHT22;54839;51.364;7.246;2023-03-01T07:45:05;-2.30;99.90
68051;DHT22;54839;51.364;7.246;2023-03-01T07:47:31;-2.10;99.90
68051;DHT22;54839;51.364;7.246;2023-03-01T07:49:57;-2.10;99.90
68051;DHT22;54839;51.364;7.246;2023-03-01T07:52:22;-2.00;99.90
68051;DHT22;54839;51.364;7.246;2023-03-01T07:54:48;-1.90;99.90
68051;DHT22;54839;51.364;7.246;2023-03-01T07:57:14;-1.80;99.90
68051;DHT22;54839;51.364;7.246;2023-03-01T07:59:39;-1.70;99.90
68051;DHT22;54839;51.364;7.246;2023-03-01T08:02:05;-1.70;99.90
68051;DHT22;54839;51.364;7.246;2023-03-01T08:04:32;-1.60;99.90
68051;DHT22;54839;51.364;7.246;2023-03-01T08:06:58;-1.40;99.90
68051;DHT22;54839;51.364;7.246;2023-03-01T08:09:24;-1.30;99.90
68051;DHT22;54839;51.364;7.246;2023-03-01T08:11:50;-1.30;99.90
68051;DHT22;54839;51.364;7.246;2023-03-01T08:14:15;-1.20;99.90
68051;DHT22;54839;51.364;7.246;2023-03-01T08:16:41;-1.20;99.90
68051;DHT22;54839;51.364;7.246;2023-03-01T08:19:09;-1.10;99.90
68051;DHT22;54839;51.364;7.246;2023-03-01T08:21:35;-1.00;99.90
68051;DHT22;54839;51.364;7.246;2023-03-01T08:24:05;-1.00;99.90
68051;DHT22;54839;51.364;7.246;2023-03-01T08:26:32;-0.90;99.90
68051;DHT22;54839;51.364;7.246;2023-03-01T08:28:57;-0.80;99.90
68051;DHT22;54839;51.364;7.246;2023-03-01T08:31:24;-0.70;99.90
68051;DHT22;54839;51.364;7.246;2023-03-01T08:33:54;-0.70;99.90
68051;DHT22;54839;51.364;7.246;2023-03-01T08:36:26;-0.60;99.90
68051;DHT22;54839;51.364;7.246;2023-03-01T08:38:52;-0.50;99.90
68051;DHT22;54839;51.364;7.246;2023-03-01T08:41:19;-0.30;99.90
68051;DHT22;54839;51.364;7.246;2023-03-01T08:43:44;-0.30;99.90
68051;DHT22;54839;51.364;7.246;2023-03-01T08:46:11;-0.10;99.90
68051;DHT22;54839;51.364;7.246;2023-03-01T08:48:36;0.00;99.90
68051;DHT22;54839;51.364;7.246;2023-03-01T08:51:16;0.10;99.90
68051;DHT22;54839;51.364;7.246;2023-03-01T08:53:42;0.20;99.90
68051;DHT22;54839;51.364;7.246;2023-03-01T08:56:09;0.20;99.90
68051;DHT22;54839;51.364;7.246;2023-03-01T08:58:35;0.20;99.90
68051;DHT22;54839;51.364;7.246;2023-03-01T09:01:07;0.30;99.90
68051;DHT22;54839;51.364;7.246;2023-03-01T09:03:32;0.30;99.90
68051;DHT22;54839;51.364;7.246;2023-03-01T09:06:01;0.40;99.90
68051;DHT22;54839;51.364;7.246;2023-03-01T09:08:27;0.50;99.90
68051;DHT22;54839;51.364;7.246;2023-03-01T09:10:53;0.60;99.90
68051;DHT22;54839;51.364;7.246;2023-03-01T09:13:18;0.70;99.90
68051;DHT22;54839;51.364;7.246;2023-03-01T09:15:44;0.70;99.90
68051;DHT22;54839;51.364;7.246;2023-03-01T09:18:09;0.80;99.90
68051;DHT22;54839;51.364;7.246;2023-03-01T09:20:35;0.90;99.90
68051;DHT22;54839;51.364;7.246;2023-03-01T09:23:01;0.90;99.90
68051;DHT22;54839;51.364;7.246;2023-03-01T09:25:26;0.90;99.90
68051;DHT22;54839;51.364;7.246;2023-03-01T09:27:53;1.10;99.90
68051;DHT22;54839;51.364;7.246;2023-03-01T09:30:20;1.10;99.90
68051;DHT22;54839;51.364;7.246;2023-03-01T09:32:46;1.30;99.90
68051;DHT22;54839;51.364;7.246;2023-03-01T09:35:12;1.30;99.90
68051;DHT22;54839;51.364;7.246;2023-03-01T09:37:38;1.40;99.90
68051;DHT22;54839;51.364;7.246;2023-03-01T09:40:06;1.40;99.90
68051;DHT22;54839;51.364;7.246;2023-03-01T09:42:36;1.40;99.90
68051;DHT22;54839;51.364;7.246;2023-03-01T09:45:19;1.50;99.90
68051;DHT22;54839;51.364;7.246;2023-03-01T09:47:46;1.60;99.90
68051;DHT22;54839;51.364;7.246;2023-03-01T09:50:18;1.70;99.90
68051;DHT22;54839;51.364;7.246;2023-03-01T09:52:54;1.70;99.90
68051;DHT22;54839;51.364;7.246;2023-03-01T09:55:37;1.80;99.90
68051;DHT22;54839;51.364;7.246;2023-03-01T09:58:41;1.80;99.90
68051;DHT22;54839;51.364;7.246;2023-03-01T10:01:27;1.90;99.90
68051;DHT22;54839;51.364;7.246;2023-03-01T10:06:31;1.90;99.90
68051;DHT22;54839;51.364;7.246;2023-03-01T10:09:02;2.00;99.90
68051;DHT22;54839;51.364;7.246;2023-03-01T10:11:38;2.10;99.90
68051;DHT22;54839;51.364;7.246;2023-03-01T10:14:38;2.20;99.90
68051;DHT22;54839;51.364;7.246;2023-03-01T10:17:20;2.30;99.90
68051;DHT22;54839;51.364;7.246;2023-03-01T10:19:49;2.40;99.90
68051;DHT22;54839;51.364;7.246;2023-03-01T10:22:19;2.40;99.90
68051;DHT22;54839;51.364;7.246;2023-03-01T10:24:47;2.70;99.90
68051;DHT22;54839;51.364;7.246;2023-03-01T10:27:23;2.60;99.90
68051;DHT22;54839;51.364;7.246;2023-03-01T10:30:13;2.60;99.90
68051;DHT22;54839;51.364;7.246;2023-03-01T10:32:42;2.50;99.90
68051;DHT22;54839;51.364;7.246;2023-03-01T10:35:27;2.60;99.90
68051;DHT22;54839;51.364;7.246;2023-03-01T10:38:02;2.70;99.90
68051;DHT22;54839;51.364;7.246;2023-03-01T10:40:28;2.70;99.90
68051;DHT22;54839;51.364;7.246;2023-03-01T10:42:58;2.80;99.90
68051;DHT22;54839;51.364;7.246;2023-03-01T10:48:16;2.80;99.90
68051;DHT22;54839;51.364;7.246;2023-03-01T10:50:47;2.90;99.90
68051;DHT22;54839;51.364;7.246;2023-03-01T10:53:29;2.90;99.90
68051;DHT22;54839;51.364;7.246;2023-03-01T10:58:30;2.90;99.90
68051;DHT22;54839;51.364;7.246;2023-03-01T11:00:58;3.00;99.90
68051;DHT22;54839;51.364;7.246;2023-03-01T11:03:45;3.20;99.90
68051;DHT22;54839;51.364;7.246;2023-03-01T11:06:27;3.20;99.90
68051;DHT22;54839;51.364;7.246;2023-03-01T11:08:53;3.30;99.90
68051;DHT22;54839;51.364;7.246;2023-03-01T11:11:23;3.20;99.90
68051;DHT22;54839;51.364;7.246;2023-03-01T11:16:37;3.20;99.90
68051;DHT22;54839;51.364;7.246;2023-03-01T11:19:18;3.30;99.90
68051;DHT22;54839;51.364;7.246;2023-03-01T11:24:19;3.60;99.90
68051;DHT22;54839;51.364;7.246;2023-03-01T11:26:51;3.70;99.90
68051;DHT22;54839;51.364;7.246;2023-03-01T11:29:35;3.70;99.90
68051;DHT22;54839;51.364;7.246;2023-03-01T11:32:06;3.70;99.90
68051;DHT22;54839;51.364;7.246;2023-03-01T11:34:46;3.90;99.90
68051;DHT22;54839;51.364;7.246;2023-03-01T11:37:21;3.90;99.90
68051;DHT22;54839;51.364;7.246;2023-03-01T11:39:58;4.00;99.90
68051;DHT22;54839;51.364;7.246;2023-03-01T11:42:46;4.10;99.90
68051;DHT22;54839;51.364;7.246;2023-03-01T11:45:13;4.10;99.90
68051;DHT22;54839;51.364;7.246;2023-03-01T11:48:11;4.10;99.90
68051;DHT22;54839;51.364;7.246;2023-03-01T11:50:47;4.20;99.90
68051;DHT22;54839;51.364;7.246;2023-03-01T11:58:54;4.40;99.90
68051;DHT22;54839;51.364;7.246;2023-03-01T12:07:36;4.40;99.90
68051;DHT22;54839;51.364;7.246;2023-03-01T12:10:20;4.60;99.90
68051;DHT22;54839;51.364;7.246;2023-03-01T12:15:46;4.60;99.90
68051;DHT22;54839;51.364;7.246;2023-03-01T12:26:33;4.60;99.90
68051;DHT22;54839;51.364;7.246;2023-03-01T12:29:27;4.50;99.90
68051;DHT22;54839;51.364;7.246;2023-03-01T12:32:12;4.50;99.90
68051;DHT22;54839;51.364;7.246;2023-03-01T12:35:20;4.60;99.90
68051;DHT22;54839;51.364;7.246;2023-03-01T12:37:59;4.70;99.90
68051;DHT22;54839;51.364;7.246;2023-03-01T12:40:53;4.80;99.90
68051;DHT22;54839;51.364;7.246;2023-03-01T12:43:41;4.80;99.90
68051;DHT22;54839;51.364;7.246;2023-03-01T12:49:06;4.80;99.90
68051;DHT22;54839;51.364;7.246;2023-03-01T12:51:34;4.90;99.90
68051;DHT22;54839;51.364;7.246;2023-03-01T12:54:07;5.00;99.90
68051;DHT22;54839;51.364;7.246;2023-03-01T12:56:37;5.20;99.90
68051;DHT22;54839;51.364;7.246;2023-03-01T13:01:49;5.30;99.90
68051;DHT22;54839;51.364;7.246;2023-03-01T13:26:00;11.50;96.20
68051;DHT22;54839;51.364;7.246;2023-03-01T13:31:08;12.00;90.50
68051;DHT22;54839;51.364;7.246;2023-03-01T13:33:48;12.10;89.60
68051;DHT22;54839;51.364;7.246;2023-03-01T13:39:03;12.50;81.90
68051;DHT22;54839;51.364;7.246;2023-03-01T13:46:59;12.70;79.50
68051;DHT22;54839;51.364;7.246;2023-03-01T13:49:34;12.10;75.80
68051;DHT22;54839;51.364;7.246;2023-03-01T13:52:01;12.10;76.60
68051;DHT22;54839;51.364;7.246;2023-03-01T13:54:32;12.90;74.40
68051;DHT22;54839;51.364;7.246;2023-03-01T13:56:59;13.70;71.60
68051;DHT22;54839;51.364;7.246;2023-03-01T13:59:26;14.20;68.10
68051;DHT22;54839;51.364;7.246;2023-03-01T14:01:53;13.10;67.60
68051;DHT22;54839;51.364;7.246;2023-03-01T14:04:33;11.70;67.80
68051;DHT22;54839;51.364;7.246;2023-03-01T14:07:21;12.40;68.20
68051;DHT22;54839;51.364;7.246;2023-03-01T14:09:58;13.80;68.70
68051;DHT22;54839;51.364;7.246;2023-03-01T14:17:55;15.00;62.20
68051;DHT22;54839;51.364;7.246;2023-03-01T14:20:30;14.30;61.60
68051;DHT22;54839;51.364;7.246;2023-03-01T14:22:59;13.90;61.20
68051;DHT22;54839;51.364;7.246;2023-03-01T14:25:32;14.90;60.90
68051;DHT22;54839;51.364;7.246;2023-03-01T14:30:38;14.50;57.90
68051;DHT22;54839;51.364;7.246;2023-03-01T14:33:19;15.20;58.30
68051;DHT22;54839;51.364;7.246;2023-03-01T14:35:56;15.10;58.10
68051;DHT22;54839;51.364;7.246;2023-03-01T14:38:31;15.40;57.90
68051;DHT22;54839;51.364;7.246;2023-03-01T14:41:00;15.50;57.90
68051;DHT22;54839;51.364;7.246;2023-03-01T14:43:28;15.70;56.80
68051;DHT22;54839;51.364;7.246;2023-03-01T14:45:54;15.90;54.80
68051;DHT22;54839;51.364;7.246;2023-03-01T14:48:20;15.50;56.40
68051;DHT22;54839;51.364;7.246;2023-03-01T14:50:46;16.40;56.20
68051;DHT22;54839;51.364;7.246;2023-03-01T14:53:18;16.80;54.80
68051;DHT22;54839;51.364;7.246;2023-03-01T14:55:46;15.30;53.40
68051;DHT22;54839;51.364;7.246;2023-03-01T14:58:15;16.10;54.00
68051;DHT22;54839;51.364;7.246;2023-03-01T15:00:53;16.00;53.00
68051;DHT22;54839;51.364;7.246;2023-03-01T15:03:36;15.60;53.80
68051;DHT22;54839;51.364;7.246;2023-03-01T15:06:06;15.30;53.20
68051;DHT22;54839;51.364;7.246;2023-03-01T15:08:33;14.40;53.20
68051;DHT22;54839;51.364;7.246;2023-03-01T15:11:05;15.00;53.80
68051;DHT22;54839;51.364;7.246;2023-03-01T15:13:33;14.60;54.10
68051;DHT22;54839;51.364;7.246;2023-03-01T15:16:13;14.90;53.40
68051;DHT22;54839;51.364;7.246;2023-03-01T15:18:45;15.70;52.80
68051;DHT22;54839;51.364;7.246;2023-03-01T15:21:33;15.50;52.30
68051;DHT22;54839;51.364;7.246;2023-03-01T15:26:49;14.60;51.80
68051;DHT22;54839;51.364;7.246;2023-03-01T15:29:20;15.10;52.40
68051;DHT22;54839;51.364;7.246;2023-03-01T15:32:20;15.60;52.10
68051;DHT22;54839;51.364;7.246;2023-03-01T15:34:48;15.30;51.10
68051;DHT22;54839;51.364;7.246;2023-03-01T15:37:45;14.90;51.00
68051;DHT22;54839;51.364;7.246;2023-03-01T15:40:26;13.70;51.40
68051;DHT22;54839;51.364;7.246;2023-03-01T15:42:59;12.70;52.20
68051;DHT22;54839;51.364;7.246;2023-03-01T15:45:27;10.50;54.90
68051;DHT22;54839;51.364;7.246;2023-03-01T15:47:59;9.30;58.30
68051;DHT22;54839;51.364;7.246;2023-03-01T15:50:34;8.50;61.20
68051;DHT22;54839;51.364;7.246;2023-03-01T15:53:03;8.00;63.00
68051;DHT22;54839;51.364;7.246;2023-03-01T15:55:31;7.80;64.90
68051;DHT22;54839;51.364;7.246;2023-03-01T15:58:14;7.50;66.50
68051;DHT22;54839;51.364;7.246;2023-03-01T16:00:41;7.30;68.70
68051;DHT22;54839;51.364;7.246;2023-03-01T16:03:08;6.90;69.70
68051;DHT22;54839;51.364;7.246;2023-03-01T16:05:37;6.80;70.50
68051;DHT22;54839;51.364;7.246;2023-03-01T16:08:03;6.60;71.90
68051;DHT22;54839;51.364;7.246;2023-03-01T16:10:31;6.50;73.20
68051;DHT22;54839;51.364;7.246;2023-03-01T16:12:58;6.40;73.60
68051;DHT22;54839;51.364;7.246;2023-03-01T16:15:26;6.40;75.60
68051;DHT22;54839;51.364;7.246;2023-03-01T16:17:52;6.30;76.80
68051;DHT22;54839;51.364;7.246;2023-03-01T16:20:18;6.10;78.80
68051;DHT22;54839;51.364;7.246;2023-03-01T16:22:44;6.10;80.60
68051;DHT22;54839;51.364;7.246;2023-03-01T16:25:11;6.00;82.50
68051;DHT22;54839;51.364;7.246;2023-03-01T16:27:38;6.10;83.50
68051;DHT22;54839;51.364;7.246;2023-03-01T16:30:05;5.90;84.50
68051;DHT22;54839;51.364;7.246;2023-03-01T16:32:31;5.90;86.40
68051;DHT22;54839;51.364;7.246;2023-03-01T16:34:57;5.80;87.80
68051;DHT22;54839;51.364;7.246;2023-03-01T16:37:22;5.70;89.50
68051;DHT22;54839;51.364;7.246;2023-03-01T16:39:48;5.70;90.40
68051;DHT22;54839;51.364;7.246;2023-03-01T16:42:16;5.60;91.40
68051;DHT22;54839;51.364;7.246;2023-03-01T16:44:42;5.50;92.20
68051;DHT22;54839;51.364;7.246;2023-03-01T16:47:07;5.50;93.20
68051;DHT22;54839;51.364;7.246;2023-03-01T16:49:33;5.40;94.10
68051;DHT22;54839;51.364;7.246;2023-03-01T16:51:59;5.30;95.40
68051;DHT22;54839;51.364;7.246;2023-03-01T16:54:24;5.20;96.20
68051;DHT22;54839;51.364;7.246;2023-03-01T16:56:50;5.10;97.10
68051;DHT22;54839;51.364;7.246;2023-03-01T16:59:15;5.00;98.00
68051;DHT22;54839;51.364;7.246;2023-03-01T17:01:43;5.00;99.20
68051;DHT22;54839;51.364;7.246;2023-03-01T17:04:12;4.90;99.70
68051;DHT22;54839;51.364;7.246;2023-03-01T17:06:38;4.90;99.90
68051;DHT22;54839;51.364;7.246;2023-03-01T17:09:05;4.80;99.90
68051;DHT22;54839;51.364;7.246;2023-03-01T17:11:30;4.70;99.90
68051;DHT22;54839;51.364;7.246;2023-03-01T17:13:56;4.60;99.90
68051;DHT22;54839;51.364;7.246;2023-03-01T17:16:22;4.60;99.90
68051;DHT22;54839;51.364;7.246;2023-03-01T17:18:48;4.50;99.90
68051;DHT22;54839;51.364;7.246;2023-03-01T17:21:14;4.40;99.90
68051;DHT22;54839;51.364;7.246;2023-03-01T17:23:42;4.30;99.90
68051;DHT22;54839;51.364;7.246;2023-03-01T17:26:08;4.30;99.90
68051;DHT22;54839;51.364;7.246;2023-03-01T17:28:35;4.30;99.90
68051;DHT22;54839;51.364;7.246;2023-03-01T17:31:04;4.20;99.90